createdAt,value
2023-08-08T00:01:03.201Z,1.7
2023-08-08T00:02:19.498Z,2.1
2023-08-08T00:03:35.782Z,1.7
2023-08-08T00:04:52.106Z,1.9
2023-08-08T00:06:08.411Z,1.7
2023-08-08T00:07:24.690Z,2
2023-08-08T00:08:40.958Z,1.7
2023-08-08T00:09:57.284Z,2
2023-08-08T00:11:13.542Z,2.2
2023-08-08T00:12:28.000Z,1.8
2023-08-08T00:13:45.144Z,1.8
2023-08-08T00:15:01.432Z,2
2023-08-08T00:16:17.756Z,1.8
2023-08-08T00:17:34.045Z,1.8
2023-08-08T00:18:50.347Z,1.8
2023-08-08T00:20:06.616Z,1.9
2023-08-08T00:21:22.905Z,1.6
2023-08-08T00:22:39.230Z,1.7
2023-08-08T00:23:55.499Z,2
2023-08-08T00:25:11.778Z,2.2
2023-08-08T00:26:28.081Z,1.9
2023-08-08T00:27:44.376Z,2
2023-08-08T00:28:59.707Z,1.6
2023-08-08T00:30:15.997Z,1.9
2023-08-08T00:31:32.283Z,2.1
2023-08-08T00:32:48.000Z,1.9
2023-08-08T00:34:04.855Z,1.7
2023-08-08T00:35:21.182Z,1.9
2023-08-08T00:36:37.435Z,2
2023-08-08T00:37:53.749Z,2.1
2023-08-08T00:39:10.026Z,1.9
2023-08-08T00:40:26.342Z,2
2023-08-08T00:41:42.645Z,2.2
2023-08-08T00:42:58.909Z,1.9
2023-08-08T00:44:15.227Z,2
2023-08-08T00:45:30.519Z,1.9
2023-08-08T00:46:46.801Z,1.9
2023-08-08T00:48:03.128Z,1.9
2023-08-08T00:49:19.428Z,1.7
2023-08-08T00:50:35.691Z,1.8
2023-08-08T00:51:52.000Z,2.2
2023-08-08T00:53:08.272Z,1.9
2023-08-08T00:54:24.590Z,2.1
2023-08-08T00:55:40.886Z,1.9
2023-08-08T00:56:57.179Z,1.9
2023-08-08T00:58:13.446Z,1.7
2023-08-08T00:59:29.735Z,1.7
2023-08-08T01:00:46.034Z,1.8
2023-08-08T01:02:01.333Z,1.8
2023-08-08T01:03:17.630Z,2
2023-08-08T01:04:33.928Z,1.7
2023-08-08T01:05:50.211Z,2.4
2023-08-08T01:07:06.523Z,2.2
2023-08-08T01:08:22.821Z,1.8
2023-08-08T01:09:39.131Z,1.9
2023-08-08T01:10:55.398Z,1.9
2023-08-08T01:12:11.722Z,1.7
2023-08-08T01:13:27.989Z,1.9
2023-08-08T01:14:44.263Z,1.9
2023-08-08T01:16:00.591Z,2
2023-08-08T01:17:16.893Z,1.8
2023-08-08T01:18:32.165Z,1.7
2023-08-08T01:19:48.461Z,1.9
2023-08-08T01:21:04.746Z,1.8
2023-08-08T01:22:21.070Z,1.7
2023-08-08T01:23:37.337Z,2.2
2023-08-08T01:24:53.631Z,1.8
2023-08-08T01:26:09.947Z,2.1
2023-08-08T01:27:26.250Z,1.8
2023-08-08T01:28:42.500Z,1.9
2023-08-08T01:29:58.795Z,1.7
2023-08-08T01:31:15.088Z,1.8
2023-08-08T01:32:31.000Z,2
2023-08-08T01:33:47.675Z,1.6
2023-08-08T01:35:02.987Z,1.9
2023-08-08T01:36:19.310Z,1.8
2023-08-08T01:37:35.601Z,2.1
2023-08-08T01:38:51.000Z,1.7
2023-08-08T01:40:08.187Z,1.7
2023-08-08T01:41:24.486Z,1.9
2023-08-08T01:42:40.781Z,1.6
2023-08-08T01:43:57.043Z,1.9
2023-08-08T01:45:13.358Z,1.8
2023-08-08T01:46:29.645Z,1.5
2023-08-08T01:47:45.943Z,1.7
2023-08-08T01:49:02.237Z,1.6
2023-08-08T01:50:18.510Z,1.7
2023-08-08T01:51:33.817Z,1.6
2023-08-08T01:52:50.118Z,1.8
2023-08-08T01:54:06.403Z,1.7
2023-08-08T01:55:22.734Z,1.7
2023-08-08T01:56:38.998Z,1.8
2023-08-08T01:57:55.308Z,1.7
2023-08-08T01:59:11.579Z,2.1
2023-08-08T02:00:27.894Z,1.7
2023-08-08T02:01:44.158Z,1.6
2023-08-08T02:03:00.454Z,2
2023-08-08T02:04:16.750Z,1.8
2023-08-08T02:05:33.050Z,1.9
2023-08-08T02:06:49.339Z,1.5
2023-08-08T02:08:04.674Z,1.7
2023-08-08T02:09:20.958Z,2.1
2023-08-08T02:10:37.232Z,1.5
2023-08-08T02:11:53.565Z,2
2023-08-08T02:13:09.851Z,1.9
2023-08-08T02:14:26.126Z,1.8
2023-08-08T02:15:42.444Z,1.5
2023-08-08T02:16:58.713Z,1.7
2023-08-08T02:18:15.029Z,1.7
2023-08-08T02:19:31.313Z,1.6
2023-08-08T02:20:47.000Z,1.7
2023-08-08T02:22:03.890Z,1.9
2023-08-08T02:23:20.209Z,1.5
2023-08-08T02:24:35.488Z,1.8
2023-08-08T02:25:51.801Z,1.7
2023-08-08T02:27:08.070Z,1.9
2023-08-08T02:28:24.350Z,1.7
2023-08-08T02:29:40.685Z,1.7
2023-08-08T02:30:56.961Z,1.7
2023-08-08T02:32:13.261Z,1.9
2023-08-08T02:33:29.568Z,1.6
2023-08-08T02:34:45.850Z,1.6
2023-08-08T02:36:02.117Z,1.5
2023-08-08T02:37:18.413Z,1.7
2023-08-08T02:38:34.699Z,1.6
2023-08-08T02:39:50.992Z,1.5
2023-08-08T02:41:06.000Z,1.4
2023-08-08T02:42:22.618Z,1.6
2023-08-08T02:43:38.923Z,1.8
2023-08-08T02:44:55.192Z,1.6
2023-08-08T02:46:11.506Z,1.7
2023-08-08T02:47:27.783Z,1.9
2023-08-08T02:48:44.095Z,1.7
2023-08-08T02:50:00.365Z,1.7
2023-08-08T02:51:16.680Z,1.6
2023-08-08T02:52:32.950Z,1.4
2023-08-08T02:53:49.244Z,2
2023-08-08T02:55:05.537Z,1.6
2023-08-08T02:56:21.860Z,1.8
2023-08-08T02:57:37.175Z,1.3
2023-08-08T02:58:53.434Z,1.5
2023-08-08T03:00:09.731Z,1.5
2023-08-08T03:01:26.023Z,1.7
2023-08-08T03:02:42.319Z,1.6
2023-08-08T03:03:58.613Z,1.4
2023-08-08T03:05:14.930Z,1.6
2023-08-08T03:06:31.228Z,1.8
2023-08-08T03:07:47.486Z,1.7
2023-08-08T03:09:03.812Z,1.5
2023-08-08T03:10:20.083Z,1.7
2023-08-08T03:11:36.364Z,1.6
2023-08-08T03:12:52.616Z,1.8
2023-08-08T03:14:07.916Z,1.6
2023-08-08T03:15:24.215Z,1.8
2023-08-08T03:16:40.467Z,1.7
2023-08-08T03:17:56.703Z,1.5
2023-08-08T03:19:12.977Z,1.8
2023-08-08T03:20:29.233Z,1.6
2023-08-08T03:21:45.532Z,1.5
2023-08-08T03:23:01.817Z,1.8
2023-08-08T03:24:18.103Z,1.7
2023-08-08T03:25:34.400Z,1.6
2023-08-08T03:26:50.656Z,1.8
2023-08-08T03:28:06.866Z,1.7
2023-08-08T03:29:23.124Z,1.7
2023-08-08T03:30:38.363Z,1.7
2023-08-08T03:31:54.623Z,1.6
2023-08-08T03:33:10.859Z,1.4
2023-08-08T03:34:27.076Z,1.9
2023-08-08T03:35:43.308Z,1.6
2023-08-08T03:36:59.559Z,1.5
2023-08-08T03:38:14.811Z,1.7
2023-08-08T03:39:31.090Z,1.8
2023-08-08T03:40:47.292Z,1.8
2023-08-08T03:42:03.531Z,1.6
2023-08-08T03:43:19.804Z,1.6
2023-08-08T03:44:36.016Z,1.8
2023-08-08T03:45:52.282Z,1.7
2023-08-08T03:47:08.529Z,1.9
2023-08-08T03:48:24.732Z,1.7
2023-08-08T03:49:40.965Z,1.8
2023-08-08T03:50:57.246Z,1.9
2023-08-08T03:52:13.478Z,1.6
2023-08-08T03:53:29.697Z,1.6
2023-08-08T03:54:44.971Z,2
2023-08-08T03:56:01.214Z,1.9
2023-08-08T03:57:17.439Z,1.8
2023-08-08T03:58:33.665Z,1.8
2023-08-08T03:59:49.908Z,2
2023-08-08T04:01:06.134Z,1.7
2023-08-08T04:02:22.406Z,1.9
2023-08-08T04:03:38.618Z,1.8
2023-08-08T04:04:54.867Z,1.6
2023-08-08T04:06:11.120Z,1.8
2023-08-08T04:07:27.327Z,1.9
2023-08-08T04:08:43.579Z,1.8
2023-08-08T04:09:59.806Z,1.7
2023-08-08T04:11:15.062Z,1.9
2023-08-08T04:12:31.313Z,1.7
2023-08-08T04:13:47.547Z,1.8
2023-08-08T04:15:03.779Z,1.9
2023-08-08T04:16:20.018Z,1.8
2023-08-08T04:17:36.290Z,1.9
2023-08-08T04:18:52.500Z,1.9
2023-08-08T04:20:08.741Z,1.8
2023-08-08T04:21:25.012Z,2.3
2023-08-08T04:22:41.213Z,1.9
2023-08-08T04:23:57.454Z,2
2023-08-08T04:25:13.727Z,1.8
2023-08-08T04:26:29.933Z,2
2023-08-08T04:27:45.192Z,1.9
2023-08-08T04:29:01.436Z,1.8
2023-08-08T04:30:17.680Z,1.9
2023-08-08T04:31:33.923Z,2
2023-08-08T04:32:50.148Z,1.7
2023-08-08T04:34:06.387Z,1.6
2023-08-08T04:35:22.622Z,2
2023-08-08T04:36:38.900Z,1.8
2023-08-08T04:37:55.119Z,1.8
2023-08-08T04:39:11.350Z,1.8
2023-08-08T04:40:27.592Z,1.9
2023-08-08T04:41:43.830Z,1.8
2023-08-08T04:43:00.062Z,2
2023-08-08T04:44:15.319Z,1.7
2023-08-08T04:45:31.557Z,1.8
2023-08-08T04:46:47.794Z,1.7
2023-08-08T04:48:04.070Z,1.9
2023-08-08T04:49:20.272Z,1.8
2023-08-08T04:50:36.514Z,1.6
2023-08-08T04:51:52.761Z,1.9
2023-08-08T04:53:08.986Z,1.9
2023-08-08T04:54:25.231Z,1.5
2023-08-08T04:55:41.497Z,1.9
2023-08-08T04:56:57.727Z,1.7
2023-08-08T04:58:13.977Z,1.9
2023-08-08T04:59:30.179Z,1.6
2023-08-08T05:00:45.436Z,1.8
2023-08-08T05:02:01.725Z,1.8
2023-08-08T05:03:17.916Z,1.8
2023-08-08T05:04:34.166Z,1.8
2023-08-08T05:05:50.436Z,1.8
2023-08-08T05:07:06.634Z,2
2023-08-08T05:08:22.920Z,2
2023-08-08T05:09:39.156Z,1.9
2023-08-08T05:10:55.358Z,1.6
2023-08-08T05:12:11.630Z,2
2023-08-08T05:13:27.826Z,1.9
2023-08-08T05:14:44.069Z,1.9
2023-08-08T05:16:00.304Z,1.8
2023-08-08T05:17:15.569Z,1.7
2023-08-08T05:18:31.843Z,1.7
2023-08-08T05:19:48.038Z,1.8
2023-08-08T05:21:04.309Z,1.8
2023-08-08T05:22:20.518Z,1.7
2023-08-08T05:23:36.790Z,1.8
2023-08-08T05:24:52.993Z,1.7
2023-08-08T05:26:09.275Z,1.8
2023-08-08T05:27:25.475Z,2.2
2023-08-08T05:28:41.745Z,2
2023-08-08T05:29:57.961Z,2
2023-08-08T05:31:14.223Z,1.8
2023-08-08T05:32:30.428Z,2.1
2023-08-08T05:33:45.689Z,1.8
2023-08-08T05:35:01.965Z,1.9
2023-08-08T05:36:18.165Z,2.1
2023-08-08T05:37:34.414Z,1.8
2023-08-08T05:38:50.674Z,1.8
2023-08-08T05:40:06.878Z,1.6
2023-08-08T05:41:23.121Z,1.9
2023-08-08T05:42:39.393Z,1.7
2023-08-08T05:43:55.629Z,1.7
2023-08-08T05:45:11.831Z,1.7
2023-08-08T05:46:28.070Z,1.7
2023-08-08T05:47:44.319Z,2.1
2023-08-08T05:49:00.587Z,2
2023-08-08T05:50:15.843Z,1.8
2023-08-08T05:51:32.056Z,2
2023-08-08T05:52:48.327Z,1.7
2023-08-08T05:54:04.525Z,1.7
2023-08-08T05:55:20.797Z,1.7
2023-08-08T05:56:37.038Z,1.8
2023-08-08T05:57:53.246Z,1.5
2023-08-08T05:59:09.481Z,1.7
2023-08-08T06:00:25.732Z,1.7
2023-08-08T06:01:41.994Z,1.5
2023-08-08T06:02:58.196Z,1.5
2023-08-08T06:04:14.470Z,1.6
2023-08-08T06:05:30.676Z,1.5
2023-08-08T06:06:47.043Z,1.5
2023-08-08T06:08:03.282Z,1.5
2023-08-08T06:09:19.510Z,1.8
2023-08-08T06:10:35.753Z,1.7
2023-08-08T06:11:51.993Z,1.7
2023-08-08T06:13:08.219Z,1.6
2023-08-08T06:14:24.472Z,1.6
2023-08-08T06:15:40.707Z,1.5
2023-08-08T06:16:56.947Z,1.4
2023-08-08T06:18:13.183Z,2
2023-08-08T06:19:29.419Z,1.7
2023-08-08T06:20:45.653Z,1.7
2023-08-08T06:22:01.910Z,1.5
2023-08-08T06:23:17.148Z,1.5
2023-08-08T06:24:33.393Z,1.5
2023-08-08T06:25:49.625Z,1.5
2023-08-08T06:27:05.866Z,1.5
2023-08-08T06:28:22.116Z,1.6
2023-08-08T06:29:38.357Z,1.7
2023-08-08T06:30:54.594Z,1.5
2023-08-08T06:32:10.828Z,1.4
2023-08-08T06:33:27.077Z,1.5
2023-08-08T06:34:43.309Z,1.5
2023-08-08T06:35:59.550Z,1.5
2023-08-08T06:37:15.774Z,1.6
2023-08-08T06:38:32.000Z,1.4
2023-08-08T06:39:47.269Z,1.4
2023-08-08T06:41:03.514Z,1.4
2023-08-08T06:42:19.759Z,1.3
2023-08-08T06:43:35.994Z,1.3
2023-08-08T06:44:52.234Z,1.4
2023-08-08T06:46:08.476Z,1.4
2023-08-08T06:47:24.707Z,1.2
2023-08-08T06:48:40.939Z,1
2023-08-08T06:49:57.180Z,1.4
2023-08-08T06:51:13.443Z,1.3
2023-08-08T06:52:29.663Z,1.4
2023-08-08T06:53:45.903Z,1.5
2023-08-08T06:55:02.146Z,1.3
2023-08-08T06:56:18.494Z,1.4
2023-08-08T06:57:34.741Z,1.3
2023-08-08T06:58:50.981Z,1.3
2023-08-08T07:00:07.212Z,1.1
2023-08-08T07:01:23.461Z,2.1
2023-08-08T07:02:39.690Z,1.4
2023-08-08T07:03:55.938Z,1.4
2023-08-08T07:05:12.165Z,1.4
2023-08-08T07:06:28.415Z,1.5
2023-08-08T07:07:44.643Z,1.6
2023-08-08T07:09:00.885Z,1.3
2023-08-08T07:10:17.130Z,1.4
2023-08-08T07:11:33.364Z,1.3
2023-08-08T07:12:48.618Z,1.5
2023-08-08T07:14:04.850Z,1.3
2023-08-08T07:15:21.091Z,1.4
2023-08-08T07:16:37.334Z,1.4
2023-08-08T07:17:53.565Z,1.3
2023-08-08T07:19:09.808Z,1.1
2023-08-08T07:20:26.045Z,1.4
2023-08-08T07:21:42.000Z,1.3
2023-08-08T07:22:58.537Z,1.3
2023-08-08T07:24:14.759Z,1.3
2023-08-08T07:25:31.009Z,1.3
2023-08-08T07:26:47.237Z,1.3
2023-08-08T07:28:03.482Z,1.2
2023-08-08T07:29:18.745Z,1.4
2023-08-08T07:30:34.975Z,1.4
2023-08-08T07:31:51.213Z,1.3
2023-08-08T07:33:07.452Z,1.4
2023-08-08T07:34:23.691Z,1.1
2023-08-08T07:35:39.933Z,1.3
2023-08-08T07:36:56.165Z,1.3
2023-08-08T07:38:12.415Z,1.5
2023-08-08T07:39:28.645Z,1.3
2023-08-08T07:40:44.880Z,1.4
2023-08-08T07:42:01.131Z,1.7
2023-08-08T07:43:17.356Z,1
2023-08-08T07:44:33.621Z,1.2
2023-08-08T07:45:48.853Z,1.2
2023-08-08T07:47:05.094Z,1.3
2023-08-08T07:48:21.341Z,1.2
2023-08-08T07:49:37.572Z,1.1
2023-08-08T07:50:53.808Z,1.1
2023-08-08T07:52:10.041Z,1.1
2023-08-08T07:53:26.423Z,1.2
2023-08-08T07:54:42.654Z,1
2023-08-08T07:55:58.884Z,1.2
2023-08-08T07:57:15.143Z,1.2
2023-08-08T07:58:31.362Z,1.1
2023-08-08T07:59:47.619Z,1.3
2023-08-08T08:01:03.855Z,1.1
2023-08-08T08:02:20.083Z,1.4
2023-08-08T08:03:36.317Z,1.3
2023-08-08T08:04:52.556Z,1.2
2023-08-08T08:06:08.807Z,1.3
2023-08-08T08:07:25.037Z,1.6
2023-08-08T08:08:41.287Z,1.4
2023-08-08T08:09:56.531Z,1.3
2023-08-08T08:11:12.764Z,1.5
2023-08-08T08:12:29.005Z,1.6
2023-08-08T08:13:45.259Z,2
2023-08-08T08:15:01.484Z,1.3
2023-08-08T08:16:17.720Z,1.4
2023-08-08T08:17:33.000Z,1.3
2023-08-08T08:18:50.199Z,1.4
2023-08-08T08:20:06.436Z,1.5
2023-08-08T08:21:22.680Z,1.4
2023-08-08T08:22:38.914Z,1.4
2023-08-08T08:23:55.154Z,1.3
2023-08-08T08:25:11.390Z,1.4
2023-08-08T08:26:26.648Z,1.4
2023-08-08T08:27:42.884Z,1.4
2023-08-08T08:28:59.129Z,1.7
2023-08-08T08:30:15.364Z,1.4
2023-08-08T08:31:31.618Z,2.3
2023-08-08T08:32:47.849Z,1.8
2023-08-08T08:34:04.077Z,1.4
2023-08-08T08:35:20.318Z,1.4
2023-08-08T08:36:36.562Z,1.4
2023-08-08T08:37:52.807Z,1.4
2023-08-08T08:39:09.032Z,1.5
2023-08-08T08:40:25.271Z,1.5
2023-08-08T08:41:41.510Z,1.5
2023-08-08T08:42:56.772Z,1.4
2023-08-08T08:44:13.004Z,1.3
2023-08-08T08:45:29.251Z,1.4
2023-08-08T08:46:45.490Z,1.5
2023-08-08T08:48:01.721Z,1.4
2023-08-08T08:49:17.960Z,1.5
2023-08-08T08:50:34.205Z,1.6
2023-08-08T08:51:50.435Z,1.5
2023-08-08T08:53:06.676Z,1.4
2023-08-08T08:54:22.913Z,1.8
2023-08-08T08:55:39.169Z,1.4
2023-08-08T08:56:55.397Z,1.5
2023-08-08T08:58:11.638Z,1.4
2023-08-08T08:59:26.901Z,1.5
2023-08-08T09:00:43.127Z,1.5
2023-08-08T09:01:59.369Z,1.2
2023-08-08T09:03:15.628Z,1.4
2023-08-08T09:04:31.866Z,1.5
2023-08-08T09:05:48.105Z,1.4
2023-08-08T09:07:04.320Z,1.4
2023-08-08T09:08:20.559Z,1.5
2023-08-08T09:09:36.794Z,1.4
2023-08-08T09:10:53.043Z,1.6
2023-08-08T09:12:09.271Z,1.5
2023-08-08T09:13:25.520Z,1.4
2023-08-08T09:14:41.754Z,1.7
2023-08-08T09:15:57.008Z,2.9
2023-08-08T09:17:13.257Z,1.4
2023-08-08T09:18:29.487Z,1.8
2023-08-08T09:19:45.725Z,1.6
2023-08-08T09:21:01.970Z,1.9
2023-08-08T09:22:18.209Z,1.6
2023-08-08T09:23:34.438Z,1.5
2023-08-08T09:24:50.000Z,1.7
2023-08-08T09:26:06.922Z,1.5
2023-08-08T09:27:23.165Z,1.7
2023-08-08T09:28:39.407Z,2.1
2023-08-08T09:29:55.656Z,1.6
2023-08-08T09:31:11.874Z,1.5
2023-08-08T09:32:27.132Z,1.5
2023-08-08T09:33:43.362Z,1.5
2023-08-08T09:34:59.609Z,1.6
2023-08-08T09:36:15.841Z,1.5
2023-08-08T09:37:32.080Z,1.6
2023-08-08T09:38:48.325Z,1.8
2023-08-08T09:40:04.556Z,1.6
2023-08-08T09:41:20.794Z,1.6
2023-08-08T09:42:37.033Z,1.4
2023-08-08T09:43:53.291Z,1.5
2023-08-08T09:45:09.520Z,1.6
2023-08-08T09:46:25.757Z,1.8
2023-08-08T09:47:42.001Z,1.6
2023-08-08T09:48:57.249Z,1.5
2023-08-08T09:50:13.482Z,1.4
2023-08-08T09:51:29.730Z,1.4
2023-08-08T09:52:45.974Z,1.6
2023-08-08T09:54:02.205Z,1.4
2023-08-08T09:55:18.448Z,1.6
2023-08-08T09:56:34.672Z,1.9
2023-08-08T09:57:50.920Z,1.6
2023-08-08T09:59:07.162Z,1.3
2023-08-08T10:00:23.390Z,1.3
2023-08-08T10:01:39.000Z,1.4
2023-08-08T10:02:55.871Z,1.4
2023-08-08T10:04:12.122Z,1.6
2023-08-08T10:05:27.360Z,1.5
2023-08-08T10:06:43.608Z,1.6
2023-08-08T10:07:59.843Z,1.5
2023-08-08T10:09:16.080Z,1.4
2023-08-08T10:10:32.324Z,1.3
2023-08-08T10:11:48.567Z,1.3
2023-08-08T10:13:04.796Z,1
2023-08-08T10:14:21.046Z,1.3
2023-08-08T10:15:37.276Z,1.5
2023-08-08T10:16:53.510Z,1.5
2023-08-08T10:18:09.756Z,1.3
2023-08-08T10:19:25.992Z,1.4
2023-08-08T10:20:42.234Z,1.4
2023-08-08T10:21:57.498Z,1.5
2023-08-08T10:23:13.718Z,1.1
2023-08-08T10:24:29.974Z,1.3
2023-08-08T10:25:46.208Z,1.4
2023-08-08T10:27:02.453Z,1.5
2023-08-08T10:28:18.702Z,1.5
2023-08-08T10:29:34.930Z,1.4
2023-08-08T10:30:51.159Z,1.3
2023-08-08T10:32:07.407Z,1.6
2023-08-08T10:33:23.000Z,1.1
2023-08-08T10:34:39.880Z,1.3
2023-08-08T10:35:56.000Z,1.5
2023-08-08T10:37:12.359Z,1.4
2023-08-08T10:38:27.613Z,1.1
2023-08-08T10:39:43.846Z,1.2
2023-08-08T10:41:00.088Z,1.2
2023-08-08T10:42:16.329Z,1.3
2023-08-08T10:43:32.563Z,1.4
2023-08-08T10:44:48.000Z,1.2
2023-08-08T10:46:05.046Z,1.4
2023-08-08T10:47:21.275Z,1.2
2023-08-08T10:48:37.519Z,1.5
2023-08-08T10:49:53.757Z,1.2
2023-08-08T10:51:09.996Z,1.5
2023-08-08T10:52:26.241Z,1.2
2023-08-08T10:53:42.483Z,1.2
2023-08-08T10:54:57.725Z,1.2
2023-08-08T10:56:13.962Z,1.2
2023-08-08T10:57:30.000Z,1.4
2023-08-08T10:58:46.444Z,1.1
2023-08-08T11:00:02.682Z,1
2023-08-08T11:01:18.947Z,1.5
2023-08-08T11:02:35.167Z,1.5
2023-08-08T11:03:51.407Z,1.2
2023-08-08T11:05:07.645Z,1.5
2023-08-08T11:06:23.881Z,1.4
2023-08-08T11:07:40.000Z,1.4
2023-08-08T11:08:56.356Z,1.3
2023-08-08T11:10:12.618Z,1.2
2023-08-08T11:11:27.848Z,1.4
2023-08-08T11:12:44.103Z,1.6
2023-08-08T11:14:00.329Z,1.5
2023-08-08T11:15:16.563Z,1.9
2023-08-08T11:16:32.801Z,1.8
2023-08-08T11:17:49.054Z,1.5
2023-08-08T11:19:05.297Z,1.3
2023-08-08T11:20:21.535Z,1.5
2023-08-08T11:21:37.764Z,1.3
2023-08-08T11:22:54.011Z,1.3
2023-08-08T11:24:10.242Z,1.4
2023-08-08T11:25:26.475Z,1.4
2023-08-08T11:26:42.711Z,1.3
2023-08-08T11:27:57.981Z,1.3
2023-08-08T11:29:14.209Z,1.4
2023-08-08T11:30:30.462Z,1.4
2023-08-08T11:31:46.697Z,1.3
2023-08-08T11:33:02.932Z,1.3
2023-08-08T11:34:19.184Z,1.4
2023-08-08T11:35:35.415Z,1.5
2023-08-08T11:38:07.000Z,1.4
2023-08-08T11:39:24.118Z,1.3
2023-08-08T11:40:40.358Z,1.4
2023-08-08T11:41:56.610Z,1.9
2023-08-08T11:43:12.843Z,1.4
2023-08-08T11:44:28.110Z,1.7
2023-08-08T11:45:44.335Z,1.5
2023-08-08T11:47:00.571Z,1.4
2023-08-08T11:48:16.818Z,1.4
2023-08-08T11:49:33.061Z,1.4
2023-08-08T11:50:49.310Z,1.4
2023-08-08T11:52:05.533Z,1.4
2023-08-08T11:53:21.770Z,1.4
2023-08-08T11:54:38.024Z,1.4
2023-08-08T11:55:54.246Z,1.6
2023-08-08T11:57:10.493Z,1.4
2023-08-08T11:58:26.732Z,1.4
2023-08-08T11:59:42.964Z,1.3
2023-08-08T12:00:59.335Z,1.4
2023-08-08T12:02:15.561Z,1.5
2023-08-08T12:03:31.806Z,1.4
2023-08-08T12:04:48.061Z,1.4
2023-08-08T12:06:04.290Z,1.4
2023-08-08T12:07:20.512Z,1.3
2023-08-08T12:08:35.791Z,1.5
2023-08-08T12:09:52.020Z,1.8
2023-08-08T12:11:08.279Z,1.5
2023-08-08T12:12:24.494Z,1.4
2023-08-08T12:13:40.732Z,1.5
2023-08-08T12:14:56.976Z,1.5
2023-08-08T12:16:13.230Z,1.8
2023-08-08T12:17:29.458Z,1.4
2023-08-08T12:18:45.717Z,1.4
2023-08-08T12:20:01.927Z,1.5
2023-08-08T12:21:18.166Z,1.5
2023-08-08T12:22:34.409Z,1.4
2023-08-08T12:23:50.646Z,1.3
2023-08-08T12:25:05.909Z,1.3
2023-08-08T12:26:22.155Z,1.2
2023-08-08T12:27:38.397Z,1.3
2023-08-08T12:28:54.618Z,1.3
2023-08-08T12:30:10.859Z,1.5
2023-08-08T12:31:27.100Z,1.3
2023-08-08T12:32:43.350Z,1.4
2023-08-08T12:33:59.574Z,1.3
2023-08-08T12:35:15.822Z,1.4
2023-08-08T12:36:32.070Z,1.6
2023-08-08T12:37:48.000Z,1.2
2023-08-08T12:39:04.000Z,1.4
2023-08-08T12:40:20.778Z,1.4
2023-08-08T12:41:36.034Z,1.5
2023-08-08T12:42:52.280Z,1.3
2023-08-08T12:44:08.000Z,1.2
2023-08-08T12:45:24.755Z,1.2
2023-08-08T12:46:40.988Z,1.8
2023-08-08T12:47:57.234Z,1.3
2023-08-08T12:49:13.463Z,1.4
2023-08-08T12:50:29.710Z,1.4
2023-08-08T12:51:45.939Z,1.4
2023-08-08T12:53:02.205Z,1.3
2023-08-08T12:54:18.432Z,1.2
2023-08-08T12:55:34.676Z,1.7
2023-08-08T12:56:50.899Z,1.2
2023-08-08T12:58:06.155Z,1.3
2023-08-08T12:59:22.396Z,1.3
2023-08-08T13:00:38.643Z,1.2
2023-08-08T13:01:54.870Z,1.3
2023-08-08T13:03:11.108Z,1.3
2023-08-08T13:04:27.376Z,1.5
2023-08-08T13:05:43.609Z,1.4
2023-08-08T13:06:59.842Z,1.3
2023-08-08T13:08:16.070Z,1.2
2023-08-08T13:09:32.314Z,1.5
2023-08-08T13:10:48.556Z,1.3
2023-08-08T13:12:04.000Z,1.3
2023-08-08T13:13:21.045Z,1.1
2023-08-08T13:14:36.306Z,1.4
2023-08-08T13:15:52.533Z,1.5
2023-08-08T13:17:08.779Z,1.4
2023-08-08T13:18:25.006Z,1.3
2023-08-08T13:19:41.000Z,1.2
2023-08-08T13:20:57.485Z,1.4
2023-08-08T13:22:13.730Z,1.2
2023-08-08T13:23:29.969Z,1.4
2023-08-08T13:24:46.220Z,1.4
2023-08-08T13:26:02.441Z,1.4
2023-08-08T13:27:18.683Z,1.2
2023-08-08T13:28:34.928Z,1.2
2023-08-08T13:29:51.172Z,1.3
2023-08-08T13:31:06.425Z,1.2
2023-08-08T13:32:22.669Z,1.1
2023-08-08T13:33:38.894Z,1.2
2023-08-08T13:34:55.000Z,1.3
2023-08-08T13:36:11.000Z,1.3
2023-08-08T13:37:27.612Z,1.2
2023-08-08T13:38:43.850Z,1.8
2023-08-08T13:40:00.085Z,1.3
2023-08-08T13:41:16.000Z,1.4
2023-08-08T13:42:32.578Z,1.5
2023-08-08T13:43:48.000Z,1.3
2023-08-08T13:45:05.064Z,1.4
2023-08-08T13:46:21.287Z,1.3
2023-08-08T13:47:36.558Z,1.4
2023-08-08T13:48:52.784Z,1.2
2023-08-08T13:50:09.023Z,1.2
2023-08-08T13:51:25.260Z,1.2
2023-08-08T13:52:41.502Z,1.2
2023-08-08T13:53:57.000Z,1.4
2023-08-08T13:55:13.989Z,1.2
2023-08-08T13:56:30.230Z,1.3
2023-08-08T13:57:46.460Z,1.4
2023-08-08T13:59:02.711Z,1.5
2023-08-08T14:00:18.954Z,1.4
2023-08-08T14:01:35.188Z,1.3
2023-08-08T14:02:51.414Z,1.5
2023-08-08T14:04:07.773Z,1.6
2023-08-08T14:05:24.042Z,1.6
2023-08-08T14:06:40.258Z,1.6
2023-08-08T14:07:56.517Z,1.6
2023-08-08T14:09:12.733Z,2.2
2023-08-08T14:10:28.967Z,1.4
2023-08-08T14:11:45.223Z,1.7
2023-08-08T14:13:01.454Z,2.3
2023-08-08T14:14:17.701Z,1.8
2023-08-08T14:15:33.939Z,1.7
2023-08-08T14:16:50.195Z,1.5
2023-08-08T14:18:06.411Z,1.9
2023-08-08T14:19:22.662Z,1.9
2023-08-08T14:20:37.913Z,1.8
2023-08-08T14:21:54.138Z,1.7
2023-08-08T14:23:10.378Z,1.7
2023-08-08T14:24:26.616Z,1.7
2023-08-08T14:25:42.872Z,1.7
2023-08-08T14:26:59.113Z,1.8
2023-08-08T14:28:15.343Z,1.7
2023-08-08T14:29:31.605Z,1.7
2023-08-08T14:30:47.833Z,1.8
2023-08-08T14:32:04.057Z,2.2
2023-08-08T14:33:20.292Z,1.7
2023-08-08T14:34:36.531Z,1.4
2023-08-08T14:35:52.773Z,1.7
2023-08-08T14:37:08.028Z,2.3
2023-08-08T14:38:24.269Z,2.6
2023-08-08T14:39:40.506Z,2.3
2023-08-08T14:40:56.762Z,3.1
2023-08-08T14:42:12.983Z,2.7
2023-08-08T14:43:29.239Z,2.1
2023-08-08T14:44:45.464Z,2.1
2023-08-08T14:46:01.724Z,2.4
2023-08-08T14:47:17.951Z,2.1
2023-08-08T14:48:34.196Z,2.6
2023-08-08T14:49:50.443Z,2.4
2023-08-08T14:51:06.667Z,2.6
2023-08-08T14:52:22.915Z,2.4
2023-08-08T14:53:38.157Z,2.6
2023-08-08T14:54:54.418Z,2.4
2023-08-08T14:56:10.647Z,2.3
2023-08-08T14:57:26.876Z,2.4
2023-08-08T14:58:43.130Z,2.2
2023-08-08T14:59:59.360Z,3
2023-08-08T15:01:15.613Z,2.5
2023-08-08T15:02:31.845Z,2.4
2023-08-08T15:03:48.070Z,2.6
2023-08-08T15:05:04.321Z,2.6
2023-08-08T15:06:20.568Z,2.3
2023-08-08T15:07:36.820Z,2.4
2023-08-08T15:08:53.047Z,2.3
2023-08-08T15:10:08.300Z,2.3
2023-08-08T15:11:24.532Z,2.2
2023-08-08T15:12:40.776Z,2.3
2023-08-08T15:13:57.006Z,2.4
2023-08-08T15:15:13.242Z,2
2023-08-08T15:16:29.478Z,1.9
2023-08-08T15:17:45.739Z,2.2
2023-08-08T15:19:01.000Z,1.8
2023-08-08T15:20:18.216Z,1.5
2023-08-08T15:21:34.435Z,1.5
2023-08-08T15:22:50.677Z,1.6
2023-08-08T15:24:06.914Z,2
2023-08-08T15:25:23.159Z,1.6
2023-08-08T15:26:38.427Z,1.5
2023-08-08T15:27:54.650Z,1.8
2023-08-08T15:29:10.913Z,1.4
2023-08-08T15:30:27.124Z,1.4
2023-08-08T15:31:43.369Z,1.4
2023-08-08T15:32:59.618Z,1.7
2023-08-08T15:34:15.875Z,1.4
2023-08-08T15:35:32.101Z,2
2023-08-08T15:36:48.339Z,1.4
2023-08-08T15:38:04.580Z,1.3
2023-08-08T15:39:20.832Z,1.4
2023-08-08T15:40:37.039Z,1.2
2023-08-08T15:41:53.284Z,1.2
2023-08-08T15:43:08.558Z,1.3
2023-08-08T15:44:24.811Z,1.2
2023-08-08T15:45:41.044Z,1.6
2023-08-08T15:46:57.258Z,1.4
2023-08-08T15:48:13.492Z,1.3
2023-08-08T15:49:29.729Z,1.4
2023-08-08T15:50:45.979Z,1.4
2023-08-08T15:52:02.208Z,1.5
2023-08-08T15:53:18.480Z,1.3
2023-08-08T15:54:34.718Z,1.2
2023-08-08T15:55:50.944Z,1.4
2023-08-08T15:57:07.168Z,1.5
2023-08-08T15:58:23.425Z,1.4
2023-08-08T15:59:38.693Z,1.3
2023-08-08T16:00:54.000Z,1.3
2023-08-08T16:02:11.141Z,1.9
2023-08-08T16:03:27.384Z,1.6
2023-08-08T16:04:43.625Z,1.3
2023-08-08T16:05:59.889Z,1.3
2023-08-08T16:07:16.097Z,1.3
2023-08-08T16:08:32.346Z,1.4
2023-08-08T16:09:48.582Z,1.4
2023-08-08T16:11:04.833Z,1.7
2023-08-08T16:12:21.068Z,1.4
2023-08-08T16:13:37.321Z,1.7
2023-08-08T16:14:53.552Z,1.5
2023-08-08T16:16:08.000Z,1.6
2023-08-08T16:17:25.025Z,1.3
2023-08-08T16:18:41.280Z,2.1
2023-08-08T16:19:57.508Z,1.5
2023-08-08T16:21:13.760Z,1.3
2023-08-08T16:22:30.001Z,1.5
2023-08-08T16:23:45.000Z,1.3
2023-08-08T16:25:01.493Z,1.4
2023-08-08T16:26:17.737Z,2
2023-08-08T16:27:33.976Z,1.5
2023-08-08T16:28:50.228Z,1.7
2023-08-08T16:30:06.440Z,1.6
2023-08-08T16:31:22.673Z,1.8
2023-08-08T16:32:38.916Z,1.6
2023-08-08T16:33:55.180Z,1.5
2023-08-08T16:35:11.402Z,2
2023-08-08T16:36:27.651Z,1.4
2023-08-08T16:37:43.882Z,1.7
2023-08-08T16:39:00.128Z,1.7
2023-08-08T16:40:15.385Z,1.5
2023-08-08T16:41:31.609Z,1.7
2023-08-08T16:42:47.857Z,1.5
2023-08-08T16:44:04.113Z,1.5
2023-08-08T16:45:20.331Z,1.4
2023-08-08T16:46:36.562Z,1.6
2023-08-08T16:47:52.798Z,1.4
2023-08-08T16:49:09.059Z,1.5
2023-08-08T16:50:25.290Z,1.7
2023-08-08T16:51:41.535Z,1.7
2023-08-08T16:52:57.774Z,1.6
2023-08-08T16:54:14.003Z,1.5
2023-08-08T16:55:30.263Z,1.7
2023-08-08T16:56:45.519Z,1.8
2023-08-08T16:58:01.742Z,1.6
2023-08-08T16:59:17.986Z,1.6
2023-08-08T17:00:34.238Z,1.4
2023-08-08T17:01:50.481Z,1.6
2023-08-08T17:03:06.713Z,1.5
2023-08-08T17:04:22.000Z,1.5
2023-08-08T17:05:39.170Z,1.6
2023-08-08T17:06:55.411Z,1.7
2023-08-08T17:08:11.638Z,1.5
2023-08-08T17:09:27.878Z,1.5
2023-08-08T17:10:44.128Z,1.5
2023-08-08T17:12:00.000Z,1.2
2023-08-08T17:13:15.613Z,1.5
2023-08-08T17:14:31.875Z,1.6
2023-08-08T17:15:48.125Z,1.5
2023-08-08T17:17:04.329Z,1.7
2023-08-08T17:18:20.581Z,1.6
2023-08-08T17:19:36.000Z,1.3
2023-08-08T17:20:53.074Z,1.7
2023-08-08T17:22:09.296Z,1.6
2023-08-08T17:23:25.558Z,1.3
2023-08-08T17:24:41.762Z,1.6
2023-08-08T17:25:58.011Z,1.4
2023-08-08T17:27:14.273Z,1.7
2023-08-08T17:28:30.509Z,1.6
2023-08-08T17:29:45.755Z,1.6
2023-08-08T17:31:01.976Z,2
2023-08-08T17:32:18.229Z,1.5
2023-08-08T17:33:34.484Z,1.8